Time;durP1;ratioP1;P1;durP2;ratioP2;P2;SDS_P1;SDS_P2;PMS_P1;PMS_P2;Temp;Humidity;BMP_temperature;BMP_pressure;BME280_temperature;BME280_humidity;BME280_pressure;Samples;Min_cycle;Max_cycle;Signal;HPM_P1;HPM_P2
2023/09/30 00:00:56;;;;;;;1.50;1.40;;;23.30;49.40;;;;;;4999687;28;20475;-62
2023/09/30 00:03:22;;;;;;;1.77;1.67;;;23.30;49.40;;;;;;5001763;28;20568;-61
2023/09/30 00:05:48;;;;;;;1.60;1.50;;;23.30;49.40;;;;;;4996958;28;20223;-61
2023/09/30 00:08:13;;;;;;;1.40;1.30;;;23.30;49.40;;;;;;4997693;28;20338;-70
2023/09/30 00:10:39;;;;;;;2.43;1.43;;;23.30;49.40;;;;;;5000767;28;20930;-68
2023/09/30 00:13:06;;;;;;;1.70;1.60;;;23.30;49.40;;;;;;4998816;28;20721;-63
2023/09/30 00:15:35;;;;;;;1.40;1.30;;;23.30;49.40;;;;;;4996367;28;20256;-60
2023/09/30 00:18:01;;;;;;;1.50;1.40;;;23.30;49.40;;;;;;4987506;28;20965;-69
2023/09/30 00:20:28;;;;;;;1.70;1.60;;;23.30;49.40;;;;;;5002167;28;20460;-61
2023/09/30 00:22:53;;;;;;;1.77;1.67;;;23.30;49.40;;;;;;4997172;28;20495;-64
2023/09/30 00:25:20;;;;;;;1.53;1.40;;;23.30;49.40;;;;;;4998259;28;20457;-63
2023/09/30 00:27:49;;;;;;;1.30;1.20;;;23.30;49.30;;;;;;4996950;28;20221;-63
2023/09/30 00:30:15;;;;;;;1.60;1.50;;;23.30;49.30;;;;;;4997972;28;20468;-61
2023/09/30 00:32:40;;;;;;;1.90;1.70;;;23.30;49.40;;;;;;4997652;28;20483;-65
2023/09/30 00:35:11;;;;;;;1.53;1.43;;;23.30;49.40;;;;;;4984515;28;20254;-67
2023/09/30 00:37:40;;;;;;;1.50;1.40;;;23.30;49.40;;;;;;4988335;28;20281;-65
2023/09/30 00:40:06;;;;;;;1.63;1.50;;;23.30;49.30;;;;;;4998213;28;20502;-67
2023/09/30 00:42:32;;;;;;;1.70;1.60;;;23.30;49.30;;;;;;4988608;28;20476;-67
2023/09/30 00:44:58;;;;;;;1.77;1.67;;;23.30;49.30;;;;;;4989849;28;20468;-62
2023/09/30 00:47:24;;;;;;;1.60;1.50;;;23.30;49.30;;;;;;4985480;28;20864;-63
2023/09/30 00:49:50;;;;;;;1.63;1.53;;;23.30;50.10;;;;;;4988695;28;20234;-69
2023/09/30 00:52:17;;;;;;;1.70;1.60;;;23.30;49.30;;;;;;4997398;28;20223;-61
2023/09/30 00:54:43;;;;;;;1.70;1.60;;;23.30;49.30;;;;;;4995317;28;20480;-63
2023/09/30 00:57:10;;;;;;;1.50;1.40;;;23.30;49.30;;;;;;4999010;28;20559;-63
2023/09/30 00:59:36;;;;;;;2.00;1.80;;;23.30;49.40;;;;;;4975110;28;20469;-67
2023/09/30 01:02:02;;;;;;;1.60;1.50;;;23.30;49.30;;;;;;4980716;28;20478;-64
2023/09/30 01:04:28;;;;;;;1.60;1.50;;;23.30;49.30;;;;;;5000969;28;20229;-62
2023/09/30 01:06:54;;;;;;;2.30;2.10;;;23.30;49.30;;;;;;4998919;28;20478;-61
2023/09/30 01:09:20;;;;;;;1.57;1.47;;;23.30;49.30;;;;;;4998371;28;20238;-67
2023/09/30 01:11:46;;;;;;;2.33;1.90;;;23.30;49.30;;;;;;4996274;28;20225;-68
2023/09/30 01:14:28;;;;;;;1.30;1.20;;;23.30;49.30;;;;;;4989195;28;20465;-61
2023/09/30 01:16:54;;;;;;;1.80;1.70;;;23.30;49.30;;;;;;4999697;28;20222;-70
2023/09/30 01:19:20;;;;;;;3.83;1.83;;;23.30;49.30;;;;;;4998983;28;20535;-65
2023/09/30 01:21:49;;;;;;;5.03;2.37;;;23.30;49.30;;;;;;4993995;28;20473;-67
2023/09/30 01:24:15;;;;;;;1.53;1.43;;;23.30;49.30;;;;;;4996244;28;20241;-61
2023/09/30 01:26:42;;;;;;;1.80;1.70;;;23.30;49.30;;;;;;4999574;28;20471;-69
2023/09/30 01:29:11;;;;;;;1.70;1.60;;;23.30;49.30;;;;;;4999725;28;20565;-69
2023/09/30 01:31:38;;;;;;;1.70;1.60;;;23.30;49.30;;;;;;4999598;28;20514;-64
2023/09/30 01:34:04;;;;;;;3.63;1.40;;;23.30;49.20;;;;;;4999609;28;21042;-67
2023/09/30 01:36:29;;;;;;;1.60;1.50;;;23.30;49.30;;;;;;4996300;28;20522;-62
2023/09/30 01:38:55;;;;;;;1.57;1.47;;;23.30;49.20;;;;;;5000775;28;20496;-62
2023/09/30 01:41:21;;;;;;;1.70;1.60;;;23.30;49.30;;;;;;4995778;28;20266;-62
2023/09/30 01:43:46;;;;;;;1.60;1.50;;;23.30;49.20;;;;;;4999542;28;21007;-66
2023/09/30 01:46:12;;;;;;;1.77;1.67;;;23.30;49.20;;;;;;4981811;28;20238;-68
2023/09/30 01:48:38;;;;;;;2.87;1.60;;;23.30;49.30;;;;;;4995053;28;20223;-60
2023/09/30 01:51:04;;;;;;;1.63;1.53;;;23.30;49.20;;;;;;4992513;28;21186;-61
2023/09/30 01:53:29;;;;;;;2.40;1.70;;;23.30;50.00;;;;;;5002282;28;20334;-62
2023/09/30 01:55:55;;;;;;;1.60;1.50;;;23.30;49.30;;;;;;4982875;28;20223;-71
2023/09/30 01:58:20;;;;;;;1.80;1.70;;;23.30;49.20;;;;;;5004117;28;20232;-67
2023/09/30 02:00:46;;;;;;;1.50;1.40;;;23.30;49.20;;;;;;4999570;28;20373;-63
2023/09/30 02:03:11;;;;;;;1.40;1.30;;;23.30;49.20;;;;;;4997687;28;20304;-64
2023/09/30 02:05:39;;;;;;;1.60;1.50;;;23.30;49.20;;;;;;4998459;28;20234;-60
2023/09/30 02:08:05;;;;;;;1.60;1.50;;;23.30;49.20;;;;;;5001252;28;20333;-70
2023/09/30 02:10:33;;;;;;;1.70;1.57;;;23.30;49.70;;;;;;4996111;28;20496;-62
2023/09/30 02:12:59;;;;;;;2.00;1.80;;;23.20;49.10;;;;;;5005009;28;20820;-63
2023/09/30 02:15:25;;;;;;;1.53;1.43;;;23.30;49.20;;;;;;4987788;28;20547;-61
2023/09/30 02:17:51;;;;;;;1.80;1.70;;;23.30;49.20;;;;;;4990716;28;20475;-64
2023/09/30 02:20:19;;;;;;;1.50;1.40;;;23.30;49.20;;;;;;5000013;28;22150;-62
2023/09/30 02:22:45;;;;;;;1.53;1.43;;;23.30;49.20;;;;;;4997939;28;20563;-64
2023/09/30 02:25:12;;;;;;;1.50;1.40;;;23.30;49.20;;;;;;4989912;28;20495;-65
2023/09/30 02:27:41;;;;;;;1.93;1.77;;;23.30;49.20;;;;;;5001094;28;20467;-64
2023/09/30 02:30:08;;;;;;;1.60;1.50;;;23.20;49.10;;;;;;4990766;28;20467;-62
2023/09/30 02:32:33;;;;;;;1.73;1.63;;;23.30;49.20;;;;;;4991850;28;20463;-70
2023/09/30 02:34:59;;;;;;;1.50;1.40;;;23.20;49.10;;;;;;4997384;28;20455;-64
2023/09/30 02:37:25;;;;;;;1.93;1.43;;;23.20;49.10;;;;;;4997610;28;21880;-62
2023/09/30 02:39:51;;;;;;;2.03;1.73;;;23.20;49.00;;;;;;4982157;28;20228;-64
2023/09/30 02:42:16;;;;;;;1.50;1.40;;;23.30;49.20;;;;;;4995865;28;20545;-67
2023/09/30 02:44:42;;;;;;;1.63;1.53;;;23.20;49.10;;;;;;4985518;28;21056;-68
2023/09/30 02:47:08;;;;;;;1.53;1.43;;;23.20;49.10;;;;;;4994999;28;20265;-66
2023/09/30 02:49:35;;;;;;;1.53;1.43;;;23.20;49.10;;;;;;4989569;28;20246;-60
2023/09/30 02:52:01;;;;;;;1.53;1.43;;;23.20;49.10;;;;;;4987355;28;20453;-67
2023/09/30 02:54:27;;;;;;;1.50;1.40;;;23.20;49.10;;;;;;4978255;28;20471;-65
2023/09/30 02:56:53;;;;;;;1.50;1.40;;;23.30;49.20;;;;;;4983870;28;20231;-61
2023/09/30 02:59:22;;;;;;;1.70;1.60;;;23.20;49.10;;;;;;4999339;28;22107;-67
2023/09/30 03:01:48;;;;;;;1.40;1.30;;;23.20;49.10;;;;;;4989929;28;20484;-69
2023/09/30 03:04:13;;;;;;;1.50;1.30;;;23.20;49.10;;;;;;4994776;28;20460;-70
2023/09/30 03:06:39;;;;;;;1.50;1.40;;;23.20;49.00;;;;;;4999545;28;20250;-64
2023/09/30 03:09:05;;;;;;;1.33;1.23;;;23.20;49.10;;;;;;4991508;28;20588;-62
2023/09/30 03:11:31;;;;;;;1.60;1.50;;;23.30;49.10;;;;;;5003574;28;20229;-60
2023/09/30 03:13:57;;;;;;;1.60;1.50;;;23.20;49.40;;;;;;4994787;28;20722;-68
2023/09/30 03:16:24;;;;;;;1.90;1.80;;;23.20;49.00;;;;;;4994962;28;20538;-61
2023/09/30 03:18:50;;;;;;;1.67;1.57;;;23.20;49.00;;;;;;4993820;28;25630;-62
2023/09/30 03:21:16;;;;;;;1.63;1.53;;;23.20;49.10;;;;;;5010270;28;20535;-69
2023/09/30 03:23:43;;;;;;;1.60;1.50;;;23.30;49.20;;;;;;4999595;28;20988;-66
2023/09/30 03:26:09;;;;;;;1.50;1.40;;;23.20;49.00;;;;;;4993548;28;20543;-70
2023/09/30 03:28:38;;;;;;;1.60;1.50;;;23.20;49.10;;;;;;4996258;28;20473;-60
2023/09/30 03:31:07;;;;;;;1.60;1.50;;;23.20;49.00;;;;;;4988734;28;20471;-63
2023/09/30 03:33:34;;;;;;;1.80;1.60;;;23.20;49.00;;;;;;5000499;28;20464;-61
2023/09/30 03:35:59;;;;;;;1.60;1.50;;;23.20;49.00;;;;;;4989302;28;20859;-68
2023/09/30 03:38:29;;;;;;;1.73;1.50;;;23.30;49.10;;;;;;4988344;28;20486;-65
2023/09/30 03:40:55;;;;;;;1.50;1.40;;;23.20;49.00;;;;;;4999386;28;20350;-62
2023/09/30 03:43:21;;;;;;;1.53;1.43;;;23.20;49.00;;;;;;4998962;28;20825;-63
2023/09/30 03:45:47;;;;;;;1.47;1.37;;;23.20;49.00;;;;;;4998502;28;20230;-68
2023/09/30 03:48:13;;;;;;;1.60;1.50;;;23.20;49.00;;;;;;4997196;28;20467;-65
2023/09/30 03:50:38;;;;;;;1.50;1.40;;;23.20;49.00;;;;;;5003161;28;21420;-65
2023/09/30 03:53:07;;;;;;;1.50;1.40;;;23.20;49.00;;;;;;4996703;28;20812;-62
2023/09/30 03:55:33;;;;;;;4.00;1.53;;;23.20;49.00;;;;;;4981312;28;20307;-70
2023/09/30 03:57:59;;;;;;;1.40;1.30;;;23.20;49.00;;;;;;4987809;28;20598;-61
2023/09/30 04:00:25;;;;;;;2.57;2.10;;;23.20;49.00;;;;;;4994196;28;20518;-69
2023/09/30 04:02:54;;;;;;;1.60;1.50;;;23.20;49.00;;;;;;4983668;28;20466;-68
2023/09/30 04:05:29;;;;;;;1.90;1.80;;;23.20;49.00;;;;;;4997845;28;20230;-64
2023/09/30 04:07:58;;;;;;;2.37;1.30;;;23.20;49.00;;;;;;5003944;28;20546;-65
2023/09/30 04:10:25;;;;;;;1.60;1.30;;;23.20;49.00;;;;;;5011011;28;20811;-61
2023/09/30 04:12:50;;;;;;;1.80;1.70;;;23.20;49.00;;;;;;4983366;28;20919;-69
2023/09/30 04:15:16;;;;;;;1.33;1.23;;;23.20;49.00;;;;;;4987906;28;20475;-65
2023/09/30 04:17:42;;;;;;;1.30;1.20;;;23.20;49.00;;;;;;5003116;28;20616;-63
2023/09/30 04:20:10;;;;;;;1.60;1.50;;;23.20;49.00;;;;;;5000400;28;21000;-61
2023/09/30 04:22:37;;;;;;;2.13;1.50;;;23.20;49.00;;;;;;4990141;28;20238;-69
2023/09/30 04:25:08;;;;;;;1.60;1.50;;;23.20;49.00;;;;;;4980600;28;21045;-61
2023/09/30 04:27:33;;;;;;;1.30;1.20;;;23.20;49.00;;;;;;4985616;28;21736;-61
2023/09/30 04:29:59;;;;;;;1.70;1.30;;;23.20;48.90;;;;;;4996798;28;20460;-71
2023/09/30 04:32:27;;;;;;;1.60;1.50;;;23.20;49.00;;;;;;4995342;28;20254;-62
2023/09/30 04:34:52;;;;;;;1.77;1.67;;;23.20;48.90;;;;;;5001472;28;20254;-60
2023/09/30 04:37:18;;;;;;;1.67;1.57;;;23.20;49.00;;;;;;5000012;28;20822;-70
2023/09/30 04:39:44;;;;;;;1.47;1.37;;;23.20;49.00;;;;;;5000054;28;20222;-67
2023/09/30 04:42:11;;;;;;;1.57;1.47;;;23.20;48.90;;;;;;5001832;28;20476;-62
2023/09/30 04:44:38;;;;;;;1.57;1.47;;;23.20;48.90;;;;;;4994338;28;20309;-64
2023/09/30 04:47:04;;;;;;;1.50;1.40;;;23.20;48.90;;;;;;4999037;28;20980;-65
2023/09/30 04:49:30;;;;;;;1.70;1.60;;;23.20;48.80;;;;;;4993620;28;20472;-69
2023/09/30 04:51:56;;;;;;;1.80;1.50;;;23.20;48.80;;;;;;4999253;28;20472;-62
2023/09/30 04:54:21;;;;;;;1.40;1.30;;;23.20;48.80;;;;;;5000035;28;20518;-65
2023/09/30 04:56:47;;;;;;;1.73;1.63;;;23.20;48.80;;;;;;5000427;28;20579;-61
2023/09/30 04:59:13;;;;;;;2.10;1.50;;;23.20;48.80;;;;;;4987322;28;20247;-63
2023/09/30 05:01:39;;;;;;;1.53;1.43;;;23.20;48.70;;;;;;4982375;28;20249;-66
2023/09/30 05:04:06;;;;;;;1.50;1.40;;;23.20;48.70;;;;;;4997005;28;20482;-62
2023/09/30 05:06:33;;;;;;;1.60;1.50;;;23.20;48.70;;;;;;4987079;28;20467;-65
2023/09/30 05:08:59;;;;;;;1.70;1.60;;;23.30;48.70;;;;;;4999649;28;20313;-69
2023/09/30 05:11:25;;;;;;;1.70;1.60;;;23.30;48.70;;;;;;4999242;28;20507;-64
2023/09/30 05:13:50;;;;;;;1.50;1.40;;;23.30;48.60;;;;;;5000371;28;21968;-63
2023/09/30 05:16:17;;;;;;;1.67;1.57;;;23.30;48.50;;;;;;4999666;28;21004;-63
2023/09/30 05:18:43;;;;;;;2.20;1.30;;;23.30;48.40;;;;;;4996147;28;20222;-68
2023/09/30 05:21:08;;;;;;;1.53;1.43;;;23.30;48.30;;;;;;4983144;28;20471;-63
2023/09/30 05:23:34;;;;;;;1.73;1.63;;;23.30;48.30;;;;;;4993665;28;20229;-62
2023/09/30 05:26:00;;;;;;;1.70;1.60;;;23.30;48.20;;;;;;4994248;28;20222;-63
2023/09/30 05:28:27;;;;;;;1.30;1.20;;;23.30;48.20;;;;;;4988561;28;20242;-63
2023/09/30 05:30:53;;;;;;;1.50;1.40;;;23.30;48.10;;;;;;4986489;28;20464;-67
2023/09/30 05:33:18;;;;;;;5.00;1.40;;;23.30;48.10;;;;;;4997061;28;20492;-60
2023/09/30 05:35:44;;;;;;;1.43;1.33;;;23.30;48.10;;;;;;4998849;28;20646;-62
2023/09/30 05:38:10;;;;;;;1.73;1.63;;;23.30;48.00;;;;;;4997467;28;20306;-62
2023/09/30 05:40:36;;;;;;;3.10;1.60;;;23.30;47.90;;;;;;4990837;28;20238;-64
2023/09/30 05:43:02;;;;;;;1.40;1.30;;;23.30;48.00;;;;;;4997966;28;20250;-67
2023/09/30 05:45:31;;;;;;;1.60;1.50;;;23.30;47.90;;;;;;4999794;28;21119;-61
2023/09/30 05:47:59;;;;;;;1.50;1.40;;;23.30;47.90;;;;;;4991231;28;20473;-70
2023/09/30 05:50:24;;;;;;;1.60;1.50;;;23.30;47.90;;;;;;4987256;28;20454;-65
2023/09/30 05:52:51;;;;;;;1.70;1.60;;;23.30;47.80;;;;;;5001533;28;20456;-69
2023/09/30 05:55:20;;;;;;;1.70;1.60;;;23.30;47.90;;;;;;5002251;28;20225;-65
2023/09/30 05:57:46;;;;;;;1.93;1.40;;;23.30;47.80;;;;;;4991724;28;20455;-67
2023/09/30 06:00:35;;;;;;;1.97;1.30;;;23.30;48.20;;;;;;5001283;28;20465;-64
2023/09/30 06:03:01;;;;;;;1.47;1.30;;;23.30;47.70;;;;;;4993909;28;21982;-62
2023/09/30 06:05:29;;;;;;;2.23;1.87;;;23.30;47.60;;;;;;4986851;28;20851;-62
2023/09/30 06:07:55;;;;;;;1.87;1.77;;;23.30;47.60;;;;;;4983149;28;20223;-68
2023/09/30 06:10:21;;;;;;;1.40;1.30;;;23.30;47.60;;;;;;4991814;28;20456;-61
2023/09/30 06:12:57;;;;;;;2.17;1.43;;;23.30;47.60;;;;;;5000693;28;20305;-64
2023/09/30 06:15:25;;;;;;;1.40;1.30;;;23.30;47.60;;;;;;5003946;28;20230;-61
2023/09/30 06:17:51;;;;;;;1.77;1.67;;;23.30;47.60;;;;;;5004486;28;20964;-62
2023/09/30 06:20:22;;;;;;;2.17;1.40;;;23.30;47.60;;;;;;5003628;28;20476;-62
2023/09/30 06:22:51;;;;;;;2.30;1.60;;;23.30;47.60;;;;;;5003458;28;20478;-63
2023/09/30 06:25:21;;;;;;;3.20;2.03;;;23.30;47.60;;;;;;5004883;28;20510;-66
2023/09/30 06:27:48;;;;;;;9.50;2.93;;;23.30;47.60;;;;;;5002036;28;20461;-63
2023/09/30 06:30:15;;;;;;;1.80;1.70;;;23.30;47.60;;;;;;5000559;28;20475;-68
2023/09/30 06:32:42;;;;;;;1.63;1.53;;;23.40;47.70;;;;;;5012608;28;20698;-62
2023/09/30 06:35:10;;;;;;;1.70;1.60;;;23.30;47.60;;;;;;4992406;28;20472;-71
2023/09/30 06:37:37;;;;;;;1.67;1.57;;;23.30;47.60;;;;;;4977031;28;20490;-71
2023/09/30 06:40:04;;;;;;;1.83;1.73;;;23.30;47.60;;;;;;4991992;28;20471;-64
2023/09/30 06:42:31;;;;;;;1.80;1.70;;;23.30;47.60;;;;;;4995742;28;20461;-59
2023/09/30 06:44:57;;;;;;;1.73;1.63;;;23.30;47.60;;;;;;4990017;28;21106;-68
2023/09/30 06:47:23;;;;;;;2.13;1.73;;;23.30;47.60;;;;;;4986794;28;20461;-61
2023/09/30 06:49:49;;;;;;;2.37;2.17;;;23.30;47.50;;;;;;5003668;28;20472;-59
2023/09/30 06:52:15;;;;;;;2.07;1.60;;;23.30;47.40;;;;;;4997522;28;20476;-61
2023/09/30 06:54:40;;;;;;;2.70;2.03;;;23.30;47.20;;;;;;5002005;28;20234;-66
2023/09/30 06:57:06;;;;;;;1.60;1.50;;;23.30;47.10;;;;;;4987475;28;20306;-75
2023/09/30 06:59:34;;;;;;;4.10;2.50;;;23.30;47.10;;;;;;5001943;28;20489;-62
2023/09/30 07:02:00;;;;;;;2.07;1.87;;;23.40;46.50;;;;;;4996277;28;20297;-59
2023/09/30 07:04:26;;;;;;;3.50;1.90;;;23.50;46.60;;;;;;5001425;28;20463;-68
2023/09/30 07:06:53;;;;;;;1.70;1.60;;;23.50;46.50;;;;;;4999107;28;20223;-69
2023/09/30 07:09:19;;;;;;;2.27;1.90;;;23.50;46.50;;;;;;4998189;28;20993;-62
2023/09/30 07:11:45;;;;;;;2.50;1.80;;;23.50;46.50;;;;;;5003507;28;20464;-63
2023/09/30 07:14:11;;;;;;;3.10;1.50;;;23.50;46.60;;;;;;5006350;28;20465;-66
2023/09/30 07:16:36;;;;;;;2.20;2.00;;;23.50;46.60;;;;;;5000011;28;20463;-61
2023/09/30 07:19:02;;;;;;;2.23;2.00;;;23.50;46.60;;;;;;5002924;28;20227;-61
2023/09/30 07:21:28;;;;;;;2.33;1.97;;;23.50;46.60;;;;;;5007241;28;20439;-60
2023/09/30 07:23:54;;;;;;;1.80;1.60;;;23.50;46.60;;;;;;5003899;28;20210;-58
2023/09/30 07:26:24;;;;;;;1.93;1.83;;;23.50;47.10;;;;;;5000567;28;20683;-60
2023/09/30 07:28:49;;;;;;;2.17;1.83;;;23.50;46.80;;;;;;4993184;28;20265;-69
2023/09/30 07:31:15;;;;;;;2.13;1.93;;;23.50;46.80;;;;;;4989831;28;20500;-60
2023/09/30 07:33:41;;;;;;;2.47;1.90;;;23.50;46.80;;;;;;5009301;28;20236;-58
2023/09/30 07:36:06;;;;;;;3.40;2.37;;;23.50;46.70;;;;;;4995990;28;20907;-64
2023/09/30 07:38:32;;;;;;;2.53;2.33;;;23.40;46.60;;;;;;4987431;28;20254;-59
2023/09/30 07:40:57;;;;;;;3.70;2.17;;;23.40;46.60;;;;;;5004613;28;20319;-57
2023/09/30 07:43:23;;;;;;;2.70;1.90;;;23.40;46.50;;;;;;5001399;28;20611;-61
2023/09/30 07:45:48;;;;;;;3.17;2.00;;;23.40;46.50;;;;;;5001529;28;20220;-62
2023/09/30 07:48:14;;;;;;;3.87;1.97;;;23.40;46.40;;;;;;5005237;28;20248;-68
2023/09/30 07:50:40;;;;;;;3.37;2.70;;;23.40;46.40;;;;;;4992701;28;20223;-64
2023/09/30 07:53:06;;;;;;;4.67;2.33;;;23.40;46.30;;;;;;4991579;28;20241;-60
2023/09/30 07:55:31;;;;;;;2.37;2.20;;;23.40;46.30;;;;;;4994365;28;20521;-58
2023/09/30 07:57:59;;;;;;;3.57;2.00;;;23.40;46.20;;;;;;5012562;28;20619;-62
2023/09/30 08:00:24;;;;;;;2.93;2.10;;;23.40;46.20;;;;;;5014501;28;20246;-60
2023/09/30 08:02:51;;;;;;;1.87;1.77;;;23.40;46.30;;;;;;5014681;28;20503;-61
2023/09/30 08:05:16;;;;;;;2.07;1.97;;;23.40;46.20;;;;;;5011099;28;20230;-59
2023/09/30 08:07:42;;;;;;;2.27;2.07;;;23.40;46.20;;;;;;5014113;28;20535;-64
2023/09/30 08:10:13;;;;;;;2.20;2.00;;;23.40;46.30;;;;;;5013987;28;20214;-63
2023/09/30 08:12:39;;;;;;;2.20;1.70;;;23.40;46.30;;;;;;4995232;28;20223;-58
2023/09/30 08:15:05;;;;;;;2.87;2.33;;;23.40;46.30;;;;;;4992964;28;20487;-64
2023/09/30 08:17:31;;;;;;;2.00;1.90;;;23.40;46.40;;;;;;5004697;28;20458;-58
2023/09/30 08:19:57;;;;;;;2.37;2.17;;;23.40;46.50;;;;;;5016057;28;20443;-60
2023/09/30 08:22:27;;;;;;;2.30;2.10;;;23.40;46.50;;;;;;5012299;28;20461;-61
2023/09/30 08:24:53;;;;;;;3.40;1.70;;;23.40;46.60;;;;;;5007933;28;20535;-62
2023/09/30 08:27:19;;;;;;;2.90;2.60;;;23.40;46.50;;;;;;4992062;28;20450;-58
2023/09/30 08:29:44;;;;;;;2.10;1.90;;;23.40;46.60;;;;;;4991865;28;20794;-65
2023/09/30 08:32:10;;;;;;;2.10;2.00;;;23.40;46.60;;;;;;5004429;28;20227;-59
2023/09/30 08:34:35;;;;;;;1.70;1.60;;;23.40;46.60;;;;;;5018124;28;20641;-62
2023/09/30 08:37:01;;;;;;;2.20;2.10;;;23.40;46.70;;;;;;5012601;28;20215;-59
2023/09/30 08:39:28;;;;;;;1.93;1.83;;;23.40;46.70;;;;;;5013144;28;20222;-64
2023/09/30 08:41:55;;;;;;;1.90;1.80;;;23.40;46.80;;;;;;5005827;28;20239;-59
2023/09/30 08:44:21;;;;;;;2.20;2.00;;;23.40;46.80;;;;;;4999025;28;20456;-62
2023/09/30 08:46:47;;;;;;;2.03;1.83;;;23.40;46.90;;;;;;5010390;28;20447;-61
2023/09/30 08:49:15;;;;;;;5.13;2.13;;;23.40;46.90;;;;;;4991615;28;20243;-65
2023/09/30 08:51:40;;;;;;;1.67;1.57;;;23.40;46.90;;;;;;4993625;28;20548;-62
2023/09/30 08:54:06;;;;;;;2.10;1.90;;;23.40;47.00;;;;;;5012587;28;20535;-62
2023/09/30 08:56:35;;;;;;;2.13;1.60;;;23.40;47.00;;;;;;5011507;28;20223;-58
2023/09/30 08:59:03;;;;;;;1.93;1.83;;;23.40;47.00;;;;;;4994952;28;20519;-57
2023/09/30 09:01:30;;;;;;;1.70;1.60;;;23.40;47.10;;;;;;5002769;28;20484;-57
2023/09/30 09:03:56;;;;;;;2.27;2.07;;;23.40;47.10;;;;;;5012274;28;20439;-58
2023/09/30 09:06:23;;;;;;;2.27;2.10;;;23.40;47.10;;;;;;5010593;28;20509;-62
2023/09/30 09:08:49;;;;;;;2.13;1.93;;;23.40;47.10;;;;;;5010419;28;20448;-59
2023/09/30 09:11:15;;;;;;;2.00;1.90;;;23.40;47.20;;;;;;5012509;28;20495;-57
2023/09/30 09:13:50;;;;;;;2.20;2.00;;;23.40;47.20;;;;;;5011341;28;20536;-58
2023/09/30 09:16:19;;;;;;;1.83;1.73;;;23.40;47.30;;;;;;4995117;28;20341;-64
2023/09/30 09:18:47;;;;;;;2.13;2.03;;;23.40;47.30;;;;;;4996392;28;20805;-58
2023/09/30 09:21:20;;;;;;;2.00;1.90;;;23.40;47.30;;;;;;4999919;28;20470;-60
2023/09/30 09:23:48;;;;;;;1.83;1.73;;;23.40;47.30;;;;;;4990645;28;20449;-61
2023/09/30 09:26:26;;;;;;;2.10;2.00;;;23.40;47.60;;;;;;4991608;28;20584;-59
2023/09/30 09:29:00;;;;;;;2.70;2.50;;;23.40;47.50;;;;;;4991635;28;20461;-64
2023/09/30 09:31:31;;;;;;;2.33;1.60;;;23.40;47.60;;;;;;4989971;28;20458;-59
2023/09/30 09:33:57;;;;;;;2.00;1.90;;;23.40;47.60;;;;;;4996138;28;20445;-61
2023/09/30 09:36:40;;;;;;;1.83;1.73;;;23.40;47.70;;;;;;4990812;28;20441;-59
2023/09/30 09:39:05;;;;;;;1.73;1.63;;;23.40;47.60;;;;;;5005315;28;20506;-58
2023/09/30 09:41:31;;;;;;;2.00;1.90;;;23.50;47.80;;;;;;5000519;28;20477;-62
2023/09/30 09:43:59;;;;;;;2.00;1.90;;;23.40;47.70;;;;;;5008014;28;20586;-61
2023/09/30 09:46:25;;;;;;;2.00;1.80;;;23.50;47.80;;;;;;5013188;28;20293;-57
2023/09/30 09:48:53;;;;;;;2.00;1.90;;;23.50;47.80;;;;;;5008903;28;20456;-61
2023/09/30 09:51:21;;;;;;;1.80;1.70;;;23.50;47.80;;;;;;5003030;28;20458;-60
2023/09/30 09:53:48;;;;;;;1.90;1.77;;;23.50;47.80;;;;;;5010189;28;20451;-62
2023/09/30 09:56:15;;;;;;;2.00;1.90;;;23.50;47.80;;;;;;5009631;28;20453;-58
2023/09/30 09:58:42;;;;;;;1.60;1.50;;;23.50;47.80;;;;;;5011941;28;20449;-62
2023/09/30 10:01:09;;;;;;;1.80;1.70;;;23.50;47.80;;;;;;5010568;28;20449;-59
2023/09/30 10:03:36;;;;;;;1.70;1.60;;;23.50;47.80;;;;;;5010620;28;20448;-62
2023/09/30 10:06:02;;;;;;;2.20;1.77;;;23.50;47.80;;;;;;5010293;28;20453;-57
2023/09/30 10:08:36;;;;;;;1.97;1.80;;;23.50;47.80;;;;;;5000289;28;20486;-59
2023/09/30 10:11:02;;;;;;;1.80;1.70;;;23.50;47.80;;;;;;5010760;28;20476;-62
2023/09/30 10:14:03;;;;;;;2.10;2.00;;;23.50;47.80;;;;;;5013461;28;20511;-59
2023/09/30 10:16:38;;;;;;;1.80;1.70;;;23.50;47.80;;;;;;5003061;28;20815;-59
2023/09/30 10:19:22;;;;;;;2.10;2.00;;;23.50;47.80;;;;;;5003593;28;20444;-60
2023/09/30 10:22:27;;;;;;;1.70;1.60;;;23.50;47.80;;;;;;5015007;28;20488;-59
2023/09/30 10:24:57;;;;;;;1.73;1.63;;;23.50;47.80;;;;;;5001953;28;20541;-57
2023/09/30 10:27:29;;;;;;;1.90;1.80;;;23.50;47.80;;;;;;5013685;28;20443;-61
2023/09/30 10:29:59;;;;;;;2.17;2.07;;;23.50;47.80;;;;;;5016191;28;20456;-60
2023/09/30 10:32:50;;;;;;;1.70;1.57;;;23.50;47.80;;;;;;5013068;28;20460;-59
2023/09/30 10:35:19;;;;;;;1.90;1.80;;;23.50;47.80;;;;;;5012795;28;20472;-57
2023/09/30 10:37:45;;;;;;;1.73;1.63;;;23.50;47.80;;;;;;5012419;28;20444;-58
2023/09/30 10:40:26;;;;;;;1.67;1.57;;;23.50;47.80;;;;;;5014241;28;21283;-60
2023/09/30 10:42:54;;;;;;;1.63;1.53;;;23.50;47.80;;;;;;5013824;28;20242;-59
2023/09/30 10:45:43;;;;;;;2.00;1.90;;;23.50;47.80;;;;;;5008329;28;20460;-62
2023/09/30 10:48:28;;;;;;;1.80;1.70;;;23.50;47.80;;;;;;5007605;28;20449;-64
2023/09/30 10:51:01;;;;;;;1.40;1.30;;;23.50;47.80;;;;;;5013997;28;20471;-59
2023/09/30 10:53:28;;;;;;;1.90;1.80;;;23.50;47.80;;;;;;5014097;28;20444;-59
2023/09/30 10:55:56;;;;;;;1.70;1.60;;;23.50;47.80;;;;;;5014009;28;21261;-59
2023/09/30 10:58:21;;;;;;;1.70;1.60;;;23.50;47.80;;;;;;5012617;28;20449;-62
2023/09/30 11:00:53;;;;;;;1.87;1.77;;;23.50;47.80;;;;;;5002547;28;21253;-59
2023/09/30 11:03:20;;;;;;;2.17;1.97;;;23.50;47.80;;;;;;5011620;28;20300;-62
2023/09/30 11:05:54;;;;;;;1.80;1.70;;;23.50;47.80;;;;;;5003617;28;20442;-60
2023/09/30 11:08:24;;;;;;;1.70;1.60;;;23.50;47.80;;;;;;5015690;28;20456;-58
2023/09/30 11:10:50;;;;;;;2.93;1.60;;;23.50;47.80;;;;;;5012734;28;20444;-63
2023/09/30 11:13:17;;;;;;;1.63;1.53;;;23.50;47.80;;;;;;5011660;28;20456;-60
2023/09/30 11:15:44;;;;;;;1.63;1.53;;;23.50;47.80;;;;;;5013170;28;20451;-59
2023/09/30 11:18:18;;;;;;;1.70;1.60;;;23.50;47.80;;;;;;5008496;28;20454;-60
2023/09/30 11:20:44;;;;;;;1.70;1.60;;;23.50;47.80;;;;;;5013950;28;20539;-62
2023/09/30 11:23:14;;;;;;;1.80;1.70;;;23.50;47.80;;;;;;5006026;28;20474;-58
2023/09/30 11:25:41;;;;;;;1.37;1.27;;;23.50;47.80;;;;;;4993843;28;20457;-59
2023/09/30 11:28:13;;;;;;;1.93;1.83;;;23.50;47.80;;;;;;4992309;28;20450;-62
2023/09/30 11:30:56;;;;;;;1.60;1.50;;;23.50;47.80;;;;;;5004863;28;20457;-58
2023/09/30 11:33:22;;;;;;;1.60;1.50;;;23.50;47.80;;;;;;5012767;28;20460;-59
2023/09/30 11:35:57;;;;;;;1.63;1.53;;;23.50;47.80;;;;;;5013920;28;20456;-60
2023/09/30 11:38:23;;;;;;;1.70;1.60;;;23.50;47.80;;;;;;5014774;28;20230;-61
2023/09/30 11:41:05;;;;;;;1.60;1.50;;;23.50;47.80;;;;;;5014052;28;20871;-59
2023/09/30 11:43:31;;;;;;;1.77;1.67;;;23.50;47.80;;;;;;5015010;28;20231;-57
2023/09/30 11:46:13;;;;;;;1.70;1.60;;;23.50;47.80;;;;;;5001272;28;20540;-60
2023/09/30 11:48:55;;;;;;;1.60;1.50;;;23.50;48.60;;;;;;4995404;28;20527;-57
2023/09/30 11:51:24;;;;;;;1.80;1.70;;;23.50;47.80;;;;;;4996655;28;20450;-62
2023/09/30 11:53:57;;;;;;;1.67;1.57;;;23.50;47.80;;;;;;4992259;28;20461;-59
2023/09/30 11:56:29;;;;;;;1.60;1.50;;;23.50;47.80;;;;;;4992287;28;20444;-58
2023/09/30 11:58:55;;;;;;;1.63;1.53;;;23.50;47.80;;;;;;4994017;28;20511;-59
2023/09/30 12:01:21;;;;;;;1.60;1.50;;;23.50;47.80;;;;;;4998626;28;20864;-58
2023/09/30 12:03:48;;;;;;;1.90;1.67;;;23.50;47.80;;;;;;5014546;28;20617;-60
2023/09/30 12:06:16;;;;;;;1.43;1.33;;;23.50;47.80;;;;;;5011363;28;20435;-62
2023/09/30 12:08:42;;;;;;;1.90;1.80;;;23.50;47.80;;;;;;5011606;28;20452;-60
2023/09/30 12:11:07;;;;;;;1.60;1.50;;;23.50;47.80;;;;;;5011962;28;20807;-59
2023/09/30 12:13:33;;;;;;;1.77;1.67;;;23.50;47.80;;;;;;5002974;28;20289;-59
2023/09/30 12:15:58;;;;;;;1.60;1.50;;;23.50;47.80;;;;;;5015935;28;20223;-60
2023/09/30 12:18:24;;;;;;;2.07;1.93;;;23.50;47.80;;;;;;5008165;28;20235;-60
2023/09/30 12:20:52;;;;;;;1.70;1.60;;;23.50;47.80;;;;;;5003482;28;20232;-57
2023/09/30 12:23:19;;;;;;;1.77;1.67;;;23.50;47.80;;;;;;5011218;28;20650;-64
2023/09/30 12:25:48;;;;;;;1.40;1.30;;;23.50;47.80;;;;;;4992903;28;20522;-57
2023/09/30 12:28:15;;;;;;;1.60;1.50;;;23.50;47.80;;;;;;4992779;28;20495;-60
2023/09/30 12:30:41;;;;;;;1.90;1.80;;;23.50;47.80;;;;;;4990967;28;21167;-57
2023/09/30 12:33:07;;;;;;;4.23;1.50;;;23.50;47.80;;;;;;4992994;28;20449;-61
2023/09/30 12:35:33;;;;;;;1.60;1.50;;;23.50;47.80;;;;;;4992163;28;20531;-59
2023/09/30 12:37:59;;;;;;;1.67;1.57;;;23.50;47.80;;;;;;5006185;28;20490;-59
2023/09/30 12:40:25;;;;;;;2.03;1.83;;;23.50;47.80;;;;;;5013558;28;20242;-62
2023/09/30 12:42:50;;;;;;;1.70;1.60;;;23.50;47.80;;;;;;5015777;28;20475;-59
2023/09/30 12:45:17;;;;;;;1.47;1.37;;;23.50;47.80;;;;;;5030427;28;20372;-61
2023/09/30 12:47:44;;;;;;;1.67;1.57;;;23.50;47.80;;;;;;5013310;28;20215;-59
2023/09/30 12:50:09;;;;;;;1.50;1.40;;;23.50;47.80;;;;;;5014912;28;20464;-59